sensor_id;sensor_type;location;lat;lon;timestamp;P1;durP1;ratioP1;P2;durP2;ratioP2
15526;SDS011;7865;50.918;4.510;2022-07-05T00:04:03;10.13;;;4.07;;
15526;SDS011;7865;50.918;4.510;2022-07-05T00:09:05;7.17;;;4.73;;
15526;SDS011;7865;50.918;4.510;2022-07-05T00:14:07;6.07;;;4.57;;
15526;SDS011;7865;50.918;4.510;2022-07-05T00:19:09;6.10;;;4.30;;
15526;SDS011;7865;50.918;4.510;2022-07-05T00:24:11;7.33;;;3.60;;
15526;SDS011;7865;50.918;4.510;2022-07-05T00:29:12;4.60;;;4.20;;
15526;SDS011;7865;50.918;4.510;2022-07-05T00:34:14;9.87;;;4.70;;
15526;SDS011;7865;50.918;4.510;2022-07-05T00:39:16;7.87;;;4.50;;
15526;SDS011;7865;50.918;4.510;2022-07-05T00:44:28;6.00;;;3.80;;
15526;SDS011;7865;50.918;4.510;2022-07-05T00:49:36;7.57;;;3.93;;
15526;SDS011;7865;50.918;4.510;2022-07-05T00:54:39;5.60;;;3.60;;
15526;SDS011;7865;50.918;4.510;2022-07-05T00:59:42;6.73;;;3.90;;
15526;SDS011;7865;50.918;4.510;2022-07-05T01:04:44;6.90;;;3.70;;
15526;SDS011;7865;50.918;4.510;2022-07-05T01:09:47;9.73;;;3.87;;
15526;SDS011;7865;50.918;4.510;2022-07-05T01:14:49;5.83;;;3.17;;
15526;SDS011;7865;50.918;4.510;2022-07-05T01:19:52;4.60;;;3.20;;
15526;SDS011;7865;50.918;4.510;2022-07-05T01:24:55;5.33;;;3.77;;
15526;SDS011;7865;50.918;4.510;2022-07-05T01:29:57;6.13;;;3.67;;
15526;SDS011;7865;50.918;4.510;2022-07-05T01:34:59;6.73;;;3.63;;
15526;SDS011;7865;50.918;4.510;2022-07-05T01:40:02;4.17;;;3.40;;
15526;SDS011;7865;50.918;4.510;2022-07-05T01:45:05;5.57;;;3.50;;
15526;SDS011;7865;50.918;4.510;2022-07-05T01:50:08;4.43;;;4.03;;
15526;SDS011;7865;50.918;4.510;2022-07-05T01:55:10;7.73;;;3.93;;
15526;SDS011;7865;50.918;4.510;2022-07-05T02:00:12;6.07;;;3.83;;
15526;SDS011;7865;50.918;4.510;2022-07-05T02:05:15;6.23;;;3.80;;
15526;SDS011;7865;50.918;4.510;2022-07-05T02:10:18;6.30;;;4.03;;
15526;SDS011;7865;50.918;4.510;2022-07-05T02:15:20;7.33;;;4.60;;
15526;SDS011;7865;50.918;4.510;2022-07-05T02:20:22;4.23;;;3.60;;
15526;SDS011;7865;50.918;4.510;2022-07-05T02:25:24;5.93;;;3.90;;
15526;SDS011;7865;50.918;4.510;2022-07-05T02:30:30;4.50;;;4.10;;
15526;SDS011;7865;50.918;4.510;2022-07-05T02:35:33;7.13;;;3.97;;
15526;SDS011;7865;50.918;4.510;2022-07-05T02:40:35;4.63;;;4.10;;
15526;SDS011;7865;50.918;4.510;2022-07-05T02:45:39;4.87;;;4.33;;
15526;SDS011;7865;50.918;4.510;2022-07-05T02:50:42;8.40;;;4.57;;
15526;SDS011;7865;50.918;4.510;2022-07-05T02:55:45;12.93;;;5.20;;
15526;SDS011;7865;50.918;4.510;2022-07-05T03:00:47;8.87;;;5.60;;
15526;SDS011;7865;50.918;4.510;2022-07-05T03:05:53;8.57;;;4.77;;
15526;SDS011;7865;50.918;4.510;2022-07-05T03:10:56;7.83;;;4.73;;
15526;SDS011;7865;50.918;4.510;2022-07-05T03:15:59;12.00;;;4.73;;
15526;SDS011;7865;50.918;4.510;2022-07-05T03:21:01;6.43;;;4.50;;
15526;SDS011;7865;50.918;4.510;2022-07-05T03:26:07;6.43;;;5.10;;
15526;SDS011;7865;50.918;4.510;2022-07-05T03:31:09;6.50;;;3.97;;
15526;SDS011;7865;50.918;4.510;2022-07-05T03:36:15;5.13;;;4.27;;
15526;SDS011;7865;50.918;4.510;2022-07-05T03:41:18;8.73;;;4.37;;
15526;SDS011;7865;50.918;4.510;2022-07-05T03:46:22;7.03;;;4.37;;
15526;SDS011;7865;50.918;4.510;2022-07-05T03:51:25;8.10;;;4.07;;
15526;SDS011;7865;50.918;4.510;2022-07-05T03:56:29;5.20;;;3.73;;
15526;SDS011;7865;50.918;4.510;2022-07-05T04:01:36;6.37;;;3.83;;
15526;SDS011;7865;50.918;4.510;2022-07-05T04:06:39;5.93;;;5.17;;
15526;SDS011;7865;50.918;4.510;2022-07-05T04:11:41;7.47;;;4.97;;
15526;SDS011;7865;50.918;4.510;2022-07-05T04:16:43;6.53;;;4.73;;
15526;SDS011;7865;50.918;4.510;2022-07-05T04:21:46;6.77;;;5.10;;
15526;SDS011;7865;50.918;4.510;2022-07-05T04:26:48;10.90;;;5.50;;
15526;SDS011;7865;50.918;4.510;2022-07-05T04:31:50;10.40;;;6.80;;
15526;SDS011;7865;50.918;4.510;2022-07-05T04:36:53;9.70;;;5.47;;
15526;SDS011;7865;50.918;4.510;2022-07-05T04:41:55;10.40;;;6.43;;
15526;SDS011;7865;50.918;4.510;2022-07-05T04:46:57;10.90;;;5.83;;
15526;SDS011;7865;50.918;4.510;2022-07-05T04:51:59;10.53;;;6.63;;
15526;SDS011;7865;50.918;4.510;2022-07-05T04:57:02;8.80;;;6.33;;
15526;SDS011;7865;50.918;4.510;2022-07-05T05:02:05;14.70;;;6.20;;
15526;SDS011;7865;50.918;4.510;2022-07-05T05:07:07;7.80;;;5.97;;
15526;SDS011;7865;50.918;4.510;2022-07-05T05:12:09;12.00;;;7.27;;
15526;SDS011;7865;50.918;4.510;2022-07-05T05:17:11;9.03;;;6.23;;
15526;SDS011;7865;50.918;4.510;2022-07-05T05:22:13;10.57;;;6.10;;
15526;SDS011;7865;50.918;4.510;2022-07-05T05:27:15;9.77;;;6.32;;
15526;SDS011;7865;50.918;4.510;2022-07-05T05:32:17;10.30;;;6.43;;
15526;SDS011;7865;50.918;4.510;2022-07-05T05:37:19;10.13;;;6.63;;
15526;SDS011;7865;50.918;4.510;2022-07-05T05:42:20;10.68;;;5.47;;
15526;SDS011;7865;50.918;4.510;2022-07-05T05:47:22;7.15;;;4.80;;
15526;SDS011;7865;50.918;4.510;2022-07-05T05:52:24;8.18;;;4.88;;
15526;SDS011;7865;50.918;4.510;2022-07-05T05:57:26;9.77;;;4.78;;
15526;SDS011;7865;50.918;4.510;2022-07-05T06:02:28;12.02;;;4.82;;
15526;SDS011;7865;50.918;4.510;2022-07-05T06:07:31;5.60;;;3.83;;
15526;SDS011;7865;50.918;4.510;2022-07-05T06:12:33;12.05;;;4.18;;
15526;SDS011;7865;50.918;4.510;2022-07-05T06:17:35;7.03;;;3.95;;
15526;SDS011;7865;50.918;4.510;2022-07-05T06:22:38;6.72;;;3.72;;
15526;SDS011;7865;50.918;4.510;2022-07-05T06:27:40;8.20;;;4.22;;
15526;SDS011;7865;50.918;4.510;2022-07-05T06:32:43;9.98;;;4.20;;
15526;SDS011;7865;50.918;4.510;2022-07-05T06:37:47;12.45;;;4.93;;
15526;SDS011;7865;50.918;4.510;2022-07-05T06:42:56;12.65;;;4.53;;
15526;SDS011;7865;50.918;4.510;2022-07-05T06:48:07;9.07;;;3.95;;
15526;SDS011;7865;50.918;4.510;2022-07-05T06:53:10;7.22;;;4.10;;
15526;SDS011;7865;50.918;4.510;2022-07-05T06:58:15;7.10;;;3.45;;
15526;SDS011;7865;50.918;4.510;2022-07-05T07:03:17;5.35;;;3.35;;
15526;SDS011;7865;50.918;4.510;2022-07-05T07:08:39;8.95;;;3.72;;
15526;SDS011;7865;50.918;4.510;2022-07-05T07:14:00;4.63;;;2.70;;
15526;SDS011;7865;50.918;4.510;2022-07-05T07:19:02;6.10;;;3.10;;
15526;SDS011;7865;50.918;4.510;2022-07-05T07:24:14;9.07;;;3.50;;
15526;SDS011;7865;50.918;4.510;2022-07-05T07:29:16;11.57;;;3.17;;
15526;SDS011;7865;50.918;4.510;2022-07-05T07:34:18;10.13;;;3.20;;
15526;SDS011;7865;50.918;4.510;2022-07-05T07:39:20;6.55;;;2.92;;
15526;SDS011;7865;50.918;4.510;2022-07-05T07:44:24;7.82;;;2.80;;
15526;SDS011;7865;50.918;4.510;2022-07-05T07:49:26;7.72;;;2.92;;
15526;SDS011;7865;50.918;4.510;2022-07-05T07:54:27;5.90;;;3.13;;
15526;SDS011;7865;50.918;4.510;2022-07-05T07:59:30;4.78;;;3.00;;
15526;SDS011;7865;50.918;4.510;2022-07-05T08:04:32;8.90;;;3.30;;
15526;SDS011;7865;50.918;4.510;2022-07-05T08:09:34;6.68;;;2.70;;
15526;SDS011;7865;50.918;4.510;2022-07-05T08:14:36;7.55;;;2.72;;
15526;SDS011;7865;50.918;4.510;2022-07-05T08:19:39;6.63;;;3.00;;
15526;SDS011;7865;50.918;4.510;2022-07-05T08:24:59;6.57;;;2.97;;
15526;SDS011;7865;50.918;4.510;2022-07-05T08:30:01;8.52;;;2.65;;
15526;SDS011;7865;50.918;4.510;2022-07-05T08:35:03;8.80;;;3.10;;
15526;SDS011;7865;50.918;4.510;2022-07-05T08:40:05;9.05;;;2.92;;
15526;SDS011;7865;50.918;4.510;2022-07-05T08:45:09;6.72;;;3.38;;
15526;SDS011;7865;50.918;4.510;2022-07-05T08:50:12;7.00;;;2.75;;
15526;SDS011;7865;50.918;4.510;2022-07-05T08:55:17;10.18;;;3.58;;
15526;SDS011;7865;50.918;4.510;2022-07-05T09:00:19;5.43;;;2.22;;
15526;SDS011;7865;50.918;4.510;2022-07-05T09:05:21;7.72;;;2.33;;
15526;SDS011;7865;50.918;4.510;2022-07-05T09:10:25;5.68;;;1.98;;
15526;SDS011;7865;50.918;4.510;2022-07-05T09:15:27;6.80;;;2.15;;
15526;SDS011;7865;50.918;4.510;2022-07-05T09:20:30;6.47;;;2.72;;
15526;SDS011;7865;50.918;4.510;2022-07-05T09:25:32;5.40;;;2.30;;
15526;SDS011;7865;50.918;4.510;2022-07-05T09:30:35;8.45;;;2.25;;
15526;SDS011;7865;50.918;4.510;2022-07-05T09:35:39;6.00;;;2.10;;
15526;SDS011;7865;50.918;4.510;2022-07-05T09:40:46;5.32;;;2.20;;
15526;SDS011;7865;50.918;4.510;2022-07-05T09:46:02;4.70;;;2.10;;
15526;SDS011;7865;50.918;4.510;2022-07-05T09:51:06;10.35;;;2.85;;
15526;SDS011;7865;50.918;4.510;2022-07-05T09:56:30;6.07;;;2.70;;
15526;SDS011;7865;50.918;4.510;2022-07-05T10:01:44;6.68;;;2.70;;
15526;SDS011;7865;50.918;4.510;2022-07-05T10:06:46;6.32;;;2.70;;
15526;SDS011;7865;50.918;4.510;2022-07-05T10:11:49;4.28;;;2.40;;
15526;SDS011;7865;50.918;4.510;2022-07-05T10:16:54;7.05;;;2.83;;
15526;SDS011;7865;50.918;4.510;2022-07-05T10:22:01;5.45;;;2.92;;
15526;SDS011;7865;50.918;4.510;2022-07-05T10:27:21;7.03;;;2.20;;
15526;SDS011;7865;50.918;4.510;2022-07-05T10:32:24;4.85;;;2.08;;
15526;SDS011;7865;50.918;4.510;2022-07-05T10:37:29;5.82;;;1.85;;
15526;SDS011;7865;50.918;4.510;2022-07-05T10:42:43;5.10;;;2.90;;
15526;SDS011;7865;50.918;4.510;2022-07-05T10:53:13;5.72;;;2.78;;
15526;SDS011;7865;50.918;4.510;2022-07-05T11:03:34;3.88;;;2.33;;
15526;SDS011;7865;50.918;4.510;2022-07-05T11:13:59;7.15;;;2.80;;
15526;SDS011;7865;50.918;4.510;2022-07-05T11:19:10;6.78;;;3.13;;
15526;SDS011;7865;50.918;4.510;2022-07-05T11:29:42;8.25;;;1.83;;
15526;SDS011;7865;50.918;4.510;2022-07-05T11:34:52;6.45;;;1.88;;
15526;SDS011;7865;50.918;4.510;2022-07-05T11:45:12;4.03;;;1.77;;
15526;SDS011;7865;50.918;4.510;2022-07-05T11:50:15;4.75;;;1.90;;
15526;SDS011;7865;50.918;4.510;2022-07-05T11:55:17;2.80;;;1.52;;
15526;SDS011;7865;50.918;4.510;2022-07-05T12:00:27;3.75;;;1.80;;
15526;SDS011;7865;50.918;4.510;2022-07-05T12:05:33;2.75;;;1.60;;
15526;SDS011;7865;50.918;4.510;2022-07-05T12:10:45;4.38;;;1.60;;
15526;SDS011;7865;50.918;4.510;2022-07-05T12:16:16;4.65;;;1.98;;
15526;SDS011;7865;50.918;4.510;2022-07-05T12:21:18;6.75;;;2.45;;
15526;SDS011;7865;50.918;4.510;2022-07-05T12:26:23;4.88;;;2.70;;
15526;SDS011;7865;50.918;4.510;2022-07-05T12:31:25;4.85;;;2.53;;
15526;SDS011;7865;50.918;4.510;2022-07-05T12:36:27;5.35;;;2.63;;
15526;SDS011;7865;50.918;4.510;2022-07-05T12:41:30;5.18;;;2.55;;
15526;SDS011;7865;50.918;4.510;2022-07-05T12:46:35;8.55;;;2.55;;
15526;SDS011;7865;50.918;4.510;2022-07-05T12:51:44;8.20;;;2.47;;
15526;SDS011;7865;50.918;4.510;2022-07-05T12:56:51;4.80;;;2.40;;
15526;SDS011;7865;50.918;4.510;2022-07-05T13:02:38;2.78;;;1.70;;
15526;SDS011;7865;50.918;4.510;2022-07-05T13:07:42;4.00;;;1.80;;
15526;SDS011;7865;50.918;4.510;2022-07-05T13:12:48;4.32;;;1.60;;
15526;SDS011;7865;50.918;4.510;2022-07-05T13:17:50;9.35;;;1.50;;
15526;SDS011;7865;50.918;4.510;2022-07-05T13:22:52;4.38;;;1.48;;
15526;SDS011;7865;50.918;4.510;2022-07-05T13:27:54;4.38;;;1.40;;
15526;SDS011;7865;50.918;4.510;2022-07-05T13:32:57;3.95;;;1.45;;
15526;SDS011;7865;50.918;4.510;2022-07-05T13:37:59;2.95;;;1.10;;
15526;SDS011;7865;50.918;4.510;2022-07-05T13:43:01;4.13;;;1.63;;
15526;SDS011;7865;50.918;4.510;2022-07-05T13:48:03;4.90;;;1.27;;
15526;SDS011;7865;50.918;4.510;2022-07-05T13:53:05;3.20;;;1.30;;
15526;SDS011;7865;50.918;4.510;2022-07-05T13:58:07;3.15;;;1.17;;
15526;SDS011;7865;50.918;4.510;2022-07-05T14:03:09;4.57;;;1.50;;
15526;SDS011;7865;50.918;4.510;2022-07-05T14:08:12;1.50;;;1.20;;
15526;SDS011;7865;50.918;4.510;2022-07-05T14:13:14;3.03;;;1.20;;
15526;SDS011;7865;50.918;4.510;2022-07-05T14:18:17;2.10;;;1.05;;
15526;SDS011;7865;50.918;4.510;2022-07-05T14:23:21;2.60;;;1.27;;
15526;SDS011;7865;50.918;4.510;2022-07-05T14:28:23;3.13;;;1.20;;
15526;SDS011;7865;50.918;4.510;2022-07-05T14:33:25;2.28;;;1.00;;
15526;SDS011;7865;50.918;4.510;2022-07-05T14:38:27;5.40;;;1.10;;
15526;SDS011;7865;50.918;4.510;2022-07-05T14:43:29;6.68;;;1.42;;
15526;SDS011;7865;50.918;4.510;2022-07-05T14:48:31;2.38;;;1.25;;
15526;SDS011;7865;50.918;4.510;2022-07-05T14:53:33;1.13;;;0.82;;
15526;SDS011;7865;50.918;4.510;2022-07-05T14:58:35;2.58;;;1.00;;
15526;SDS011;7865;50.918;4.510;2022-07-05T15:03:37;4.55;;;1.00;;
15526;SDS011;7865;50.918;4.510;2022-07-05T15:08:41;5.43;;;1.10;;
15526;SDS011;7865;50.918;4.510;2022-07-05T15:13:42;1.27;;;0.90;;
15526;SDS011;7865;50.918;4.510;2022-07-05T15:18:44;3.42;;;1.40;;
15526;SDS011;7865;50.918;4.510;2022-07-05T15:23:47;7.07;;;1.23;;
15526;SDS011;7865;50.918;4.510;2022-07-05T15:29:09;2.95;;;1.10;;
15526;SDS011;7865;50.918;4.510;2022-07-05T15:34:11;1.90;;;0.90;;
15526;SDS011;7865;50.918;4.510;2022-07-05T15:39:13;1.15;;;1.00;;
15526;SDS011;7865;50.918;4.510;2022-07-05T15:44:15;4.47;;;1.05;;
15526;SDS011;7865;50.918;4.510;2022-07-05T15:49:17;1.58;;;0.85;;
15526;SDS011;7865;50.918;4.510;2022-07-05T15:54:20;2.58;;;1.17;;
15526;SDS011;7865;50.918;4.510;2022-07-05T15:59:21;4.18;;;1.00;;
15526;SDS011;7865;50.918;4.510;2022-07-05T16:04:23;5.07;;;1.27;;
15526;SDS011;7865;50.918;4.510;2022-07-05T16:09:30;2.40;;;0.73;;
15526;SDS011;7865;50.918;4.510;2022-07-05T16:14:32;0.68;;;0.68;;
15526;SDS011;7865;50.918;4.510;2022-07-05T16:19:35;3.08;;;0.85;;
15526;SDS011;7865;50.918;4.510;2022-07-05T16:24:37;0.98;;;0.77;;
15526;SDS011;7865;50.918;4.510;2022-07-05T16:29:39;1.55;;;0.90;;
15526;SDS011;7865;50.918;4.510;2022-07-05T16:34:41;2.63;;;0.80;;
15526;SDS011;7865;50.918;4.510;2022-07-05T16:39:43;1.75;;;0.90;;
15526;SDS011;7865;50.918;4.510;2022-07-05T16:44:45;1.70;;;0.90;;
15526;SDS011;7865;50.918;4.510;2022-07-05T16:49:48;1.58;;;1.10;;
15526;SDS011;7865;50.918;4.510;2022-07-05T16:54:50;1.98;;;1.05;;
15526;SDS011;7865;50.918;4.510;2022-07-05T16:59:52;1.58;;;1.45;;
15526;SDS011;7865;50.918;4.510;2022-07-05T17:04:54;1.95;;;0.82;;
15526;SDS011;7865;50.918;4.510;2022-07-05T17:09:56;1.45;;;0.82;;
15526;SDS011;7865;50.918;4.510;2022-07-05T17:14:58;2.45;;;1.00;;
15526;SDS011;7865;50.918;4.510;2022-07-05T17:20:00;1.00;;;0.90;;
15526;SDS011;7865;50.918;4.510;2022-07-05T17:25:03;1.92;;;1.00;;
15526;SDS011;7865;50.918;4.510;2022-07-05T17:30:05;2.15;;;1.00;;
15526;SDS011;7865;50.918;4.510;2022-07-05T17:35:08;3.38;;;1.05;;
15526;SDS011;7865;50.918;4.510;2022-07-05T17:40:10;2.15;;;1.10;;
15526;SDS011;7865;50.918;4.510;2022-07-05T17:45:12;2.60;;;0.85;;
15526;SDS011;7865;50.918;4.510;2022-07-05T17:50:14;2.90;;;0.90;;
15526;SDS011;7865;50.918;4.510;2022-07-05T17:55:37;1.13;;;0.80;;
15526;SDS011;7865;50.918;4.510;2022-07-05T18:00:39;3.80;;;1.20;;
15526;SDS011;7865;50.918;4.510;2022-07-05T18:05:41;1.38;;;1.02;;
15526;SDS011;7865;50.918;4.510;2022-07-05T18:10:43;3.22;;;0.93;;
15526;SDS011;7865;50.918;4.510;2022-07-05T18:15:45;3.40;;;1.08;;
15526;SDS011;7865;50.918;4.510;2022-07-05T18:20:47;3.47;;;1.50;;
15526;SDS011;7865;50.918;4.510;2022-07-05T18:25:50;3.60;;;1.15;;
15526;SDS011;7865;50.918;4.510;2022-07-05T18:30:52;2.15;;;1.20;;
15526;SDS011;7865;50.918;4.510;2022-07-05T18:35:54;2.75;;;1.08;;
15526;SDS011;7865;50.918;4.510;2022-07-05T18:40:56;2.33;;;0.88;;
15526;SDS011;7865;50.918;4.510;2022-07-05T18:45:58;3.38;;;1.30;;
15526;SDS011;7865;50.918;4.510;2022-07-05T18:51:01;2.88;;;1.30;;
15526;SDS011;7865;50.918;4.510;2022-07-05T18:56:04;3.50;;;1.02;;
15526;SDS011;7865;50.918;4.510;2022-07-05T19:01:24;3.53;;;1.30;;
15526;SDS011;7865;50.918;4.510;2022-07-05T19:06:27;3.85;;;1.38;;
15526;SDS011;7865;50.918;4.510;2022-07-05T19:11:48;2.47;;;1.20;;
15526;SDS011;7865;50.918;4.510;2022-07-05T19:17:08;2.33;;;0.90;;
15526;SDS011;7865;50.918;4.510;2022-07-05T19:22:10;2.67;;;1.40;;
15526;SDS011;7865;50.918;4.510;2022-07-05T19:27:13;2.08;;;1.17;;
15526;SDS011;7865;50.918;4.510;2022-07-05T19:32:15;2.13;;;1.00;;
15526;SDS011;7865;50.918;4.510;2022-07-05T19:37:17;4.68;;;1.65;;
15526;SDS011;7865;50.918;4.510;2022-07-05T19:42:19;4.47;;;1.40;;
15526;SDS011;7865;50.918;4.510;2022-07-05T19:47:21;3.72;;;1.48;;
15526;SDS011;7865;50.918;4.510;2022-07-05T19:52:23;3.55;;;1.38;;
15526;SDS011;7865;50.918;4.510;2022-07-05T19:57:25;5.72;;;1.48;;
15526;SDS011;7865;50.918;4.510;2022-07-05T20:02:27;3.30;;;2.15;;
15526;SDS011;7865;50.918;4.510;2022-07-05T20:07:29;4.75;;;1.88;;
15526;SDS011;7865;50.918;4.510;2022-07-05T20:12:31;2.70;;;1.60;;
15526;SDS011;7865;50.918;4.510;2022-07-05T20:17:33;3.30;;;1.67;;
15526;SDS011;7865;50.918;4.510;2022-07-05T20:22:36;3.23;;;1.47;;
15526;SDS011;7865;50.918;4.510;2022-07-05T20:27:38;1.67;;;1.57;;
15526;SDS011;7865;50.918;4.510;2022-07-05T20:32:40;4.43;;;2.00;;
15526;SDS011;7865;50.918;4.510;2022-07-05T20:37:42;6.03;;;1.73;;
15526;SDS011;7865;50.918;4.510;2022-07-05T20:42:44;3.63;;;1.80;;
15526;SDS011;7865;50.918;4.510;2022-07-05T20:47:48;5.40;;;1.90;;
15526;SDS011;7865;50.918;4.510;2022-07-05T20:52:50;4.00;;;1.80;;
15526;SDS011;7865;50.918;4.510;2022-07-05T20:57:52;4.03;;;1.70;;
15526;SDS011;7865;50.918;4.510;2022-07-05T21:02:55;2.80;;;1.63;;
15526;SDS011;7865;50.918;4.510;2022-07-05T21:07:57;7.37;;;2.10;;
15526;SDS011;7865;50.918;4.510;2022-07-05T21:12:59;4.27;;;1.90;;
15526;SDS011;7865;50.918;4.510;2022-07-05T21:18:01;4.70;;;1.63;;
15526;SDS011;7865;50.918;4.510;2022-07-05T21:23:05;3.93;;;1.90;;
15526;SDS011;7865;50.918;4.510;2022-07-05T21:28:07;3.50;;;1.83;;
15526;SDS011;7865;50.918;4.510;2022-07-05T21:33:10;5.97;;;2.00;;
15526;SDS011;7865;50.918;4.510;2022-07-05T21:38:12;2.87;;;1.87;;
15526;SDS011;7865;50.918;4.510;2022-07-05T21:43:14;4.77;;;1.93;;
15526;SDS011;7865;50.918;4.510;2022-07-05T21:48:16;5.83;;;2.13;;
15526;SDS011;7865;50.918;4.510;2022-07-05T21:53:19;9.70;;;2.40;;
15526;SDS011;7865;50.918;4.510;2022-07-05T21:58:20;5.17;;;2.37;;
15526;SDS011;7865;50.918;4.510;2022-07-05T22:03:23;9.53;;;2.70;;
15526;SDS011;7865;50.918;4.510;2022-07-05T22:08:54;3.70;;;2.17;;
15526;SDS011;7865;50.918;4.510;2022-07-05T22:13:56;5.13;;;2.57;;
15526;SDS011;7865;50.918;4.510;2022-07-05T22:18:58;4.80;;;2.27;;
15526;SDS011;7865;50.918;4.510;2022-07-05T22:24:00;7.00;;;2.63;;
15526;SDS011;7865;50.918;4.510;2022-07-05T22:29:03;4.97;;;2.50;;
15526;SDS011;7865;50.918;4.510;2022-07-05T22:34:05;3.00;;;2.33;;
15526;SDS011;7865;50.918;4.510;2022-07-05T22:39:07;7.30;;;2.33;;
15526;SDS011;7865;50.918;4.510;2022-07-05T22:44:10;10.67;;;2.93;;
15526;SDS011;7865;50.918;4.510;2022-07-05T22:49:12;7.37;;;3.23;;
15526;SDS011;7865;50.918;4.510;2022-07-05T22:54:15;4.43;;;3.27;;
15526;SDS011;7865;50.918;4.510;2022-07-05T22:59:17;4.47;;;2.63;;
15526;SDS011;7865;50.918;4.510;2022-07-05T23:04:19;9.67;;;3.00;;
15526;SDS011;7865;50.918;4.510;2022-07-05T23:09:21;4.33;;;2.60;;
15526;SDS011;7865;50.918;4.510;2022-07-05T23:14:23;6.33;;;2.80;;
15526;SDS011;7865;50.918;4.510;2022-07-05T23:19:25;10.83;;;2.97;;
15526;SDS011;7865;50.918;4.510;2022-07-05T23:24:27;5.23;;;2.93;;
15526;SDS011;7865;50.918;4.510;2022-07-05T23:29:47;6.17;;;3.10;;
15526;SDS011;7865;50.918;4.510;2022-07-05T23:34:49;3.30;;;2.80;;
15526;SDS011;7865;50.918;4.510;2022-07-05T23:39:51;3.83;;;2.83;;
15526;SDS011;7865;50.918;4.510;2022-07-05T23:44:54;6.80;;;3.10;;
15526;SDS011;7865;50.918;4.510;2022-07-05T23:49:56;21.43;;;3.97;;
15526;SDS011;7865;50.918;4.510;2022-07-05T23:54:58;4.10;;;2.87;;
